Time;durP1;ratioP1;P1;durP2;ratioP2;P2;SDS_P1;SDS_P2;PMS_P1;PMS_P2;Temp;Humidity;BMP_temperature;BMP_pressure;BME280_temperature;BME280_humidity;BME280_pressure;Samples;Min_cycle;Max_cycle;Signal;HPM_P1;HPM_P2
2021/08/14 00:01:37;;;;;;;7.93;3.58;;;20.10;82.70;;;;;;5052390;28;20053;-71
2021/08/14 00:04:03;;;;;;;15.98;3.60;;;20.10;82.70;;;;;;5052509;28;20116;-71
2021/08/14 00:06:29;;;;;;;7.80;2.80;;;20.10;82.60;;;;;;5052300;28;20017;-70
2021/08/14 00:08:54;;;;;;;11.40;3.58;;;20.00;83.00;;;;;;5052360;28;20454;-70
2021/08/14 00:11:20;;;;;;;8.40;2.92;;;20.00;83.20;;;;;;5052338;28;20039;-70
2021/08/14 00:13:45;;;;;;;12.82;3.78;;;20.00;83.50;;;;;;5052446;28;20188;-70
2021/08/14 00:16:11;;;;;;;8.55;3.15;;;19.90;83.80;;;;;;5052201;28;20036;-71
2021/08/14 00:18:37;;;;;;;9.98;3.15;;;19.80;83.80;;;;;;5052249;28;20017;-71
2021/08/14 00:21:06;;;;;;;9.77;3.10;;;19.80;83.70;;;;;;5052458;28;20544;-70
2021/08/14 00:23:32;;;;;;;5.32;2.58;;;19.70;83.70;;;;;;5050790;28;20045;-71
2021/08/14 00:25:58;;;;;;;9.20;3.28;;;19.70;83.80;;;;;;5051950;28;20418;-70
2021/08/14 00:28:23;;;;;;;10.50;2.90;;;19.70;84.00;;;;;;5051994;28;20037;-71
2021/08/14 00:30:49;;;;;;;8.52;3.75;;;19.60;84.40;;;;;;5051758;28;20033;-71
2021/08/14 00:33:14;;;;;;;9.52;3.33;;;19.60;84.40;;;;;;5052282;28;20029;-70
2021/08/14 00:35:40;;;;;;;10.25;3.10;;;19.60;85.00;;;;;;5051866;28;20040;-70
2021/08/14 00:38:06;;;;;;;5.72;3.00;;;19.50;85.30;;;;;;5050778;28;20040;-70
2021/08/14 00:40:32;;;;;;;12.38;3.70;;;19.50;85.40;;;;;;5051739;28;20358;-70
2021/08/14 00:42:57;;;;;;;9.68;3.60;;;19.50;85.20;;;;;;5051716;28;20400;-70
2021/08/14 00:45:23;;;;;;;8.75;3.63;;;19.40;85.30;;;;;;5051581;28;20048;-70
2021/08/14 00:47:49;;;;;;;12.20;3.35;;;19.40;85.60;;;;;;5051972;28;20056;-70
2021/08/14 00:50:14;;;;;;;8.32;3.08;;;19.40;85.50;;;;;;5051549;28;20043;-71
2021/08/14 00:52:40;;;;;;;10.60;3.40;;;19.40;85.60;;;;;;5051525;28;20179;-71
2021/08/14 00:55:07;;;;;;;8.95;3.40;;;19.30;85.80;;;;;;5051630;28;20116;-71
2021/08/14 00:57:33;;;;;;;5.78;2.78;;;19.30;86.10;;;;;;5051643;28;20457;-70
2021/08/14 00:59:59;;;;;;;10.35;3.60;;;19.30;86.20;;;;;;5052024;28;20033;-70
2021/08/14 01:02:25;;;;;;;8.73;3.22;;;19.20;86.20;;;;;;5051131;28;20549;-70
2021/08/14 01:04:51;;;;;;;8.43;3.53;;;19.20;86.50;;;;;;5051208;28;20041;-70
2021/08/14 01:07:18;;;;;;;5.30;2.92;;;19.20;86.40;;;;;;5051055;28;20029;-70
2021/08/14 01:09:45;;;;;;;10.30;3.65;;;19.20;86.60;;;;;;5051014;28;20112;-70
2021/08/14 01:12:15;;;;;;;8.02;3.50;;;19.20;86.60;;;;;;5051836;28;20300;-70
2021/08/14 01:14:45;;;;;;;8.35;3.53;;;19.10;86.90;;;;;;5051107;28;20518;-70
2021/08/14 01:17:11;;;;;;;7.55;3.03;;;19.00;87.00;;;;;;5050982;28;20033;-70
2021/08/14 01:19:37;;;;;;;5.90;3.28;;;19.00;87.00;;;;;;5050177;28;20060;-71
2021/08/14 01:22:08;;;;;;;10.65;3.72;;;19.00;87.20;;;;;;5050728;28;20059;-71
2021/08/14 01:24:35;;;;;;;7.97;3.00;;;18.90;86.90;;;;;;5051173;28;20509;-70
2021/08/14 01:27:01;;;;;;;8.48;3.00;;;18.90;87.00;;;;;;5051617;28;20036;-71
2021/08/14 01:29:26;;;;;;;9.55;3.40;;;18.90;87.00;;;;;;5050960;28;20490;-70
2021/08/14 01:31:52;;;;;;;7.95;3.08;;;19.00;87.50;;;;;;5050993;28;20116;-71
2021/08/14 01:34:21;;;;;;;9.10;2.97;;;18.90;87.40;;;;;;5049876;28;20128;-70
2021/08/14 01:36:50;;;;;;;7.07;3.10;;;18.80;87.50;;;;;;5034339;28;20543;-70
2021/08/14 01:39:16;;;;;;;10.55;3.45;;;18.80;87.50;;;;;;5031415;28;20072;-69
2021/08/14 01:41:55;;;;;;;7.07;3.38;;;18.80;87.70;;;;;;5031040;28;20064;-69
2021/08/14 01:44:21;;;;;;;6.68;2.75;;;18.80;88.00;;;;;;5030757;28;20033;-70
2021/08/14 01:46:46;;;;;;;6.97;3.08;;;18.70;87.80;;;;;;5030839;28;20032;-69
2021/08/14 01:49:12;;;;;;;8.55;3.25;;;18.70;88.00;;;;;;5030837;28;20560;-70
2021/08/14 01:51:38;;;;;;;8.75;3.20;;;18.70;87.70;;;;;;5030793;28;20030;-71
2021/08/14 01:54:05;;;;;;;9.88;3.38;;;18.60;87.90;;;;;;5030043;28;20048;-70
2021/08/14 01:56:31;;;;;;;7.80;3.88;;;18.70;88.20;;;;;;5030931;28;20041;-70
2021/08/14 01:58:57;;;;;;;7.93;2.78;;;18.60;88.40;;;;;;5030666;28;20113;-71
2021/08/14 02:01:23;;;;;;;6.97;3.20;;;18.60;88.50;;;;;;5030623;28;20108;-71
2021/08/14 02:03:50;;;;;;;8.70;2.72;;;18.50;88.60;;;;;;5030632;28;20036;-70
2021/08/14 02:06:17;;;;;;;6.60;2.70;;;18.40;88.80;;;;;;5031339;28;20025;-70
2021/08/14 02:08:42;;;;;;;4.78;2.35;;;18.40;89.40;;;;;;5030746;28;20099;-69
2021/08/14 02:11:14;;;;;;;8.35;2.88;;;18.30;89.60;;;;;;5029562;28;20041;-69
2021/08/14 02:13:41;;;;;;;11.73;3.13;;;18.30;89.60;;;;;;5030379;28;20462;-67
2021/08/14 02:16:06;;;;;;;7.28;2.97;;;18.30;89.60;;;;;;5030490;28;20474;-70
2021/08/14 02:18:32;;;;;;;6.78;2.60;;;18.30;89.50;;;;;;5030661;28;20026;-70
2021/08/14 02:20:58;;;;;;;7.93;3.10;;;18.20;89.50;;;;;;5030809;28;20084;-70
2021/08/14 02:23:23;;;;;;;7.40;3.05;;;18.20;89.80;;;;;;5030436;28;20091;-71
2021/08/14 02:25:49;;;;;;;8.55;3.08;;;18.30;89.70;;;;;;5030624;28;20029;-70
2021/08/14 02:28:14;;;;;;;8.93;3.17;;;18.20;89.70;;;;;;5030348;28;20051;-70
2021/08/14 02:30:40;;;;;;;10.32;2.63;;;18.20;90.00;;;;;;5030543;28;20029;-70
2021/08/14 02:33:06;;;;;;;7.35;2.70;;;18.10;90.20;;;;;;5034805;28;20132;-70
2021/08/14 02:35:31;;;;;;;8.57;3.28;;;18.10;90.20;;;;;;5034328;28;20044;-70
2021/08/14 02:37:57;;;;;;;6.10;2.50;;;18.10;90.30;;;;;;5034067;28;20026;-70
2021/08/14 02:40:22;;;;;;;6.05;2.85;;;18.10;90.30;;;;;;5034009;28;20041;-70
2021/08/14 02:42:48;;;;;;;7.55;3.00;;;18.00;90.30;;;;;;5033075;28;20029;-70
2021/08/14 02:45:14;;;;;;;8.18;3.50;;;18.00;90.40;;;;;;5034347;28;20383;-70
2021/08/14 02:47:40;;;;;;;8.02;2.78;;;18.00;90.50;;;;;;5034013;28;20030;-69
2021/08/14 02:50:06;;;;;;;11.07;2.80;;;18.00;90.60;;;;;;5032925;28;20040;-71
2021/08/14 02:52:32;;;;;;;10.75;3.05;;;18.00;90.70;;;;;;5032781;28;20120;-70
2021/08/14 02:54:58;;;;;;;10.07;3.42;;;17.90;90.50;;;;;;5033679;28;20109;-70
2021/08/14 02:57:23;;;;;;;7.38;2.50;;;17.90;90.70;;;;;;5033613;28;20440;-70
2021/08/14 02:59:49;;;;;;;7.40;2.88;;;17.90;90.80;;;;;;5034044;28;20029;-71
2021/08/14 03:02:14;;;;;;;8.40;2.55;;;17.90;90.70;;;;;;5033606;28;20022;-69
2021/08/14 03:04:40;;;;;;;7.75;2.70;;;17.90;90.90;;;;;;5033536;28;20503;-70
2021/08/14 03:07:06;;;;;;;8.90;2.58;;;17.80;91.00;;;;;;5033651;28;20044;-70
2021/08/14 03:09:31;;;;;;;8.02;2.85;;;17.80;91.00;;;;;;5033524;28;20083;-70
2021/08/14 03:11:57;;;;;;;11.20;2.92;;;17.70;91.10;;;;;;5033647;28;20047;-70
2021/08/14 03:14:22;;;;;;;8.60;2.97;;;17.70;91.20;;;;;;5033468;28;20037;-70
2021/08/14 03:16:48;;;;;;;9.10;3.05;;;17.70;91.20;;;;;;5033285;28;20531;-70
2021/08/14 03:19:14;;;;;;;12.63;3.55;;;17.70;91.30;;;;;;5033354;28;20030;-71
2021/08/14 03:21:39;;;;;;;10.13;3.13;;;17.70;91.50;;;;;;5033275;28;20054;-70
2021/08/14 03:24:05;;;;;;;8.18;2.95;;;17.70;91.50;;;;;;5033488;28;20053;-70
2021/08/14 03:26:30;;;;;;;8.98;3.03;;;17.70;91.50;;;;;;5033356;28;20508;-70
2021/08/14 03:28:56;;;;;;;4.22;2.13;;;17.60;91.60;;;;;;5032902;28;20029;-70
2021/08/14 03:31:22;;;;;;;7.55;2.75;;;17.60;91.80;;;;;;5033257;28;20056;-71
2021/08/14 03:33:48;;;;;;;9.35;2.85;;;17.60;92.00;;;;;;5033092;28;20033;-69
2021/08/14 03:36:14;;;;;;;6.45;3.20;;;17.60;92.00;;;;;;5033375;28;20025;-71
2021/08/14 03:38:40;;;;;;;6.78;3.00;;;17.70;91.90;;;;;;5033036;28;20037;-71
2021/08/14 03:41:08;;;;;;;7.32;3.08;;;17.70;92.20;;;;;;5032965;28;20540;-70
2021/08/14 03:43:33;;;;;;;7.82;2.83;;;17.60;92.30;;;;;;5032174;28;20056;-70
2021/08/14 03:45:59;;;;;;;10.02;3.22;;;17.60;92.40;;;;;;5032899;28;20382;-70
2021/08/14 03:48:25;;;;;;;5.28;2.70;;;17.60;92.40;;;;;;5032776;28;20071;-70
2021/08/14 03:50:50;;;;;;;13.48;2.97;;;17.70;92.30;;;;;;5033203;28;20026;-71
2021/08/14 03:53:16;;;;;;;6.40;2.83;;;17.70;92.30;;;;;;5032534;28;20025;-70
2021/08/14 03:55:42;;;;;;;6.88;2.60;;;17.70;92.40;;;;;;5032801;28;20033;-70
2021/08/14 03:58:08;;;;;;;12.85;3.20;;;17.80;92.20;;;;;;5032540;28;20049;-70
2021/08/14 04:00:34;;;;;;;10.30;3.22;;;17.80;92.40;;;;;;5031274;28;20429;-70
2021/08/14 04:03:00;;;;;;;6.90;2.80;;;17.70;92.40;;;;;;5032728;28;20023;-70
2021/08/14 04:05:26;;;;;;;8.38;3.25;;;17.80;92.10;;;;;;5032701;28;20033;-70
2021/08/14 04:07:51;;;;;;;10.77;2.67;;;17.80;92.30;;;;;;5032459;28;20463;-69
2021/08/14 04:10:17;;;;;;;10.43;2.90;;;17.80;91.90;;;;;;5032436;28;20025;-69
2021/08/14 04:12:43;;;;;;;9.25;2.60;;;17.90;92.10;;;;;;5032309;28;20031;-70
2021/08/14 04:15:09;;;;;;;6.35;3.10;;;18.00;91.80;;;;;;5032760;28;20082;-70
2021/08/14 04:17:35;;;;;;;9.18;3.03;;;18.00;91.90;;;;;;5032354;28;20030;-70
2021/08/14 04:20:01;;;;;;;9.48;2.80;;;17.90;91.80;;;;;;5032067;28;20593;-70
2021/08/14 04:22:26;;;;;;;6.35;2.53;;;18.00;91.70;;;;;;5031868;28;20060;-70
2021/08/14 04:24:52;;;;;;;6.22;2.67;;;18.00;91.70;;;;;;5031877;28;20029;-70
2021/08/14 04:27:18;;;;;;;8.48;2.67;;;18.00;92.10;;;;;;5031867;28;20052;-71
2021/08/14 04:29:43;;;;;;;7.88;2.40;;;18.00;91.70;;;;;;5032290;28;20061;-69
2021/08/14 04:32:09;;;;;;;9.80;2.72;;;18.10;91.80;;;;;;5031834;28;20112;-69
2021/08/14 04:34:34;;;;;;;13.55;3.15;;;18.10;91.70;;;;;;5031640;28;20321;-71
2021/08/14 04:37:00;;;;;;;9.63;2.92;;;18.10;91.90;;;;;;5031715;28;20037;-72
2021/08/14 04:39:25;;;;;;;13.70;3.08;;;18.20;91.90;;;;;;5030509;28;20033;-70
2021/08/14 04:41:51;;;;;;;8.43;2.53;;;18.20;91.70;;;;;;5032418;28;20025;-70
2021/08/14 04:44:16;;;;;;;7.63;2.72;;;18.20;91.80;;;;;;5031661;28;20021;-70
2021/08/14 04:46:42;;;;;;;9.02;2.90;;;18.20;91.70;;;;;;5031554;28;20045;-72
2021/08/14 04:49:07;;;;;;;12.63;2.83;;;18.20;91.50;;;;;;5030676;28;20030;-71
2021/08/14 04:51:33;;;;;;;6.75;2.75;;;18.30;91.60;;;;;;5031586;28;20483;-71
2021/08/14 04:53:59;;;;;;;8.55;2.80;;;18.20;91.50;;;;;;5031685;28;20026;-70
2021/08/14 04:56:24;;;;;;;9.23;2.75;;;18.20;91.50;;;;;;5030801;28;20025;-71
2021/08/14 04:58:50;;;;;;;11.50;2.60;;;18.30;91.80;;;;;;5031417;28;20091;-71
2021/08/14 05:01:16;;;;;;;13.65;2.75;;;18.30;91.90;;;;;;5031251;28;20125;-70
2021/08/14 05:03:41;;;;;;;11.55;2.90;;;18.40;91.60;;;;;;5031344;28;20045;-70
2021/08/14 05:06:07;;;;;;;9.57;2.83;;;18.40;91.40;;;;;;5030971;28;20041;-71
2021/08/14 05:08:35;;;;;;;12.10;3.03;;;18.50;91.10;;;;;;5031184;28;20056;-71
2021/08/14 05:11:02;;;;;;;6.80;2.83;;;18.50;90.90;;;;;;5031353;28;20340;-70
2021/08/14 05:13:27;;;;;;;7.80;2.63;;;18.40;90.90;;;;;;5031234;28;20467;-71
2021/08/14 05:15:53;;;;;;;6.50;2.45;;;18.50;91.00;;;;;;5031175;28;20033;-70
2021/08/14 05:18:18;;;;;;;7.30;2.47;;;18.50;90.90;;;;;;5031036;28;20075;-71
2021/08/14 05:20:44;;;;;;;9.27;2.17;;;18.50;91.00;;;;;;5031436;28;20025;-71
2021/08/14 05:23:10;;;;;;;12.93;3.10;;;18.50;91.10;;;;;;5031048;28;20052;-70
2021/08/14 05:25:35;;;;;;;14.02;6.38;;;18.60;91.10;;;;;;5030936;28;20033;-70
2021/08/14 05:28:01;;;;;;;14.88;4.72;;;18.50;90.90;;;;;;5030927;28;20041;-70
2021/08/14 05:30:27;;;;;;;13.15;4.28;;;18.50;91.00;;;;;;5031094;28;20450;-70
2021/08/14 05:32:53;;;;;;;16.75;6.47;;;18.60;90.70;;;;;;5031363;28;20024;-71
2021/08/14 05:35:18;;;;;;;17.70;4.95;;;18.60;90.90;;;;;;5031045;28;20108;-70
2021/08/14 05:37:44;;;;;;;13.35;5.03;;;18.50;90.90;;;;;;5030915;28;20061;-70
2021/08/14 05:40:10;;;;;;;13.63;3.05;;;18.60;90.80;;;;;;5030837;28;20098;-70
2021/08/14 05:42:36;;;;;;;8.48;2.85;;;18.60;90.80;;;;;;5030993;28;20040;-70
2021/08/14 05:45:02;;;;;;;7.82;3.20;;;18.60;90.70;;;;;;5030247;28;20029;-70
2021/08/14 05:47:27;;;;;;;9.38;2.80;;;18.60;90.50;;;;;;5030561;28;20026;-70
2021/08/14 05:49:53;;;;;;;10.98;3.05;;;18.60;90.50;;;;;;5030645;28;20026;-70
2021/08/14 05:52:18;;;;;;;9.10;2.75;;;18.70;90.60;;;;;;5030471;28;20072;-71
2021/08/14 05:54:44;;;;;;;12.35;2.90;;;18.70;90.50;;;;;;5030716;28;20032;-71
2021/08/14 05:57:09;;;;;;;16.35;2.75;;;18.70;90.30;;;;;;5031158;28;20018;-71
2021/08/14 05:59:35;;;;;;;9.00;3.03;;;18.70;90.40;;;;;;5030611;28;20099;-71
2021/08/14 06:02:01;;;;;;;11.85;3.35;;;18.70;90.40;;;;;;5030637;28;20030;-70
2021/08/14 06:04:26;;;;;;;8.98;2.70;;;18.70;90.40;;;;;;5030619;28;20143;-70
2021/08/14 06:06:52;;;;;;;8.43;2.50;;;18.70;90.20;;;;;;5032761;28;20032;-71
2021/08/14 06:09:17;;;;;;;12.25;3.25;;;18.70;90.10;;;;;;5034636;28;20112;-70
2021/08/14 06:11:43;;;;;;;21.20;6.78;;;18.80;90.20;;;;;;5034989;28;20033;-70
2021/08/14 06:14:09;;;;;;;14.23;5.60;;;18.90;90.10;;;;;;5034725;28;20030;-70
2021/08/14 06:16:34;;;;;;;6.45;2.72;;;18.80;90.00;;;;;;5034493;28;20476;-71
2021/08/14 06:19:00;;;;;;;9.68;2.78;;;18.90;89.60;;;;;;5034539;28;20622;-73
2021/08/14 06:21:25;;;;;;;11.57;3.15;;;19.00;89.30;;;;;;5033286;28;20040;-70
2021/08/14 06:23:51;;;;;;;10.43;2.83;;;19.00;88.80;;;;;;5034558;28;20049;-70
2021/08/14 06:26:17;;;;;;;7.53;2.95;;;19.10;88.70;;;;;;5034351;28;20037;-71
2021/08/14 06:28:42;;;;;;;14.80;4.32;;;19.10;88.70;;;;;;5034123;28;20120;-70
2021/08/14 06:31:08;;;;;;;9.55;2.83;;;19.20;88.70;;;;;;5034321;28;20336;-71
2021/08/14 06:33:33;;;;;;;10.30;2.58;;;19.20;88.70;;;;;;5034017;28;20486;-70
2021/08/14 06:35:59;;;;;;;8.02;2.63;;;19.20;89.30;;;;;;5034563;28;20017;-71
2021/08/14 06:38:25;;;;;;;8.82;2.72;;;19.30;89.70;;;;;;5032866;28;20030;-71
2021/08/14 06:40:50;;;;;;;11.35;2.55;;;19.30;88.70;;;;;;5033869;28;20116;-71
2021/08/14 06:43:16;;;;;;;10.60;3.13;;;19.40;88.90;;;;;;5033923;28;20029;-70
2021/08/14 06:45:41;;;;;;;11.60;3.10;;;19.50;89.20;;;;;;5032786;28;20086;-72
2021/08/14 06:48:07;;;;;;;10.20;2.50;;;19.50;88.90;;;;;;5034766;28;20029;-71
2021/08/14 06:50:33;;;;;;;9.85;2.78;;;19.60;88.80;;;;;;5033651;28;20112;-72
2021/08/14 06:52:59;;;;;;;11.43;2.92;;;19.70;87.60;;;;;;5033784;28;20021;-70
2021/08/14 06:55:24;;;;;;;9.65;2.92;;;19.80;86.80;;;;;;5033586;28;20343;-69
2021/08/14 06:57:50;;;;;;;10.82;2.83;;;19.90;86.40;;;;;;5033514;28;20061;-71
2021/08/14 07:00:16;;;;;;;11.60;2.88;;;20.00;85.70;;;;;;5032887;28;20025;-72
2021/08/14 07:02:42;;;;;;;9.20;2.83;;;20.10;85.90;;;;;;5033707;28;20570;-71
2021/08/14 07:05:09;;;;;;;14.20;2.63;;;20.30;85.50;;;;;;5033435;28;20025;-69
2021/08/14 07:07:34;;;;;;;11.60;2.42;;;20.40;85.20;;;;;;5033379;28;20344;-71
2021/08/14 07:10:05;;;;;;;14.75;2.92;;;20.50;85.20;;;;;;5033457;28;20025;-71
2021/08/14 07:12:30;;;;;;;9.63;2.13;;;20.50;84.40;;;;;;5033273;28;20026;-71
2021/08/14 07:14:56;;;;;;;13.55;3.35;;;20.70;84.10;;;;;;5032953;28;20630;-70
2021/08/14 07:17:22;;;;;;;18.75;3.42;;;20.80;84.00;;;;;;5032563;28;20033;-68
2021/08/14 07:19:48;;;;;;;6.75;2.35;;;20.80;84.20;;;;;;5033016;28;20025;-70
2021/08/14 07:22:13;;;;;;;7.13;2.33;;;20.90;83.90;;;;;;5033293;28;20498;-69
2021/08/14 07:24:39;;;;;;;10.10;2.70;;;21.00;83.50;;;;;;5033194;28;20504;-70
2021/08/14 07:27:05;;;;;;;14.77;2.88;;;21.10;83.20;;;;;;5032396;28;20026;-70
2021/08/14 07:29:30;;;;;;;11.07;2.53;;;21.10;83.60;;;;;;5033012;28;20033;-69
2021/08/14 07:31:56;;;;;;;6.57;2.30;;;21.20;83.00;;;;;;5032956;28;20044;-69
2021/08/14 07:34:21;;;;;;;14.45;2.88;;;21.20;82.50;;;;;;5033024;28;20040;-68
2021/08/14 07:36:47;;;;;;;9.45;2.67;;;21.30;82.40;;;;;;5033043;28;20030;-70
2021/08/14 07:39:13;;;;;;;12.32;2.40;;;21.40;82.30;;;;;;5033381;28;20058;-69
2021/08/14 07:41:38;;;;;;;13.38;3.05;;;21.40;82.20;;;;;;5032989;28;20467;-69
2021/08/14 07:44:04;;;;;;;13.23;3.03;;;21.50;82.00;;;;;;5033081;28;20161;-69
2021/08/14 07:46:30;;;;;;;12.15;2.60;;;21.60;82.00;;;;;;5032968;28;20076;-69
2021/08/14 07:48:55;;;;;;;15.63;4.50;;;21.70;81.10;;;;;;5032803;28;20037;-70
2021/08/14 07:51:21;;;;;;;10.18;2.85;;;21.80;81.20;;;;;;5032677;28;20045;-70
2021/08/14 07:53:46;;;;;;;10.85;3.67;;;21.80;80.60;;;;;;5033359;28;20244;-69
2021/08/14 07:56:12;;;;;;;13.95;3.25;;;22.00;80.60;;;;;;5032604;28;20099;-69
2021/08/14 07:58:38;;;;;;;13.50;3.55;;;22.10;80.70;;;;;;5031590;28;20104;-70
2021/08/14 08:01:04;;;;;;;12.27;2.88;;;22.10;80.30;;;;;;5031094;28;20045;-70
2021/08/14 08:03:29;;;;;;;12.35;3.35;;;22.20;79.70;;;;;;5032568;28;20030;-74
2021/08/14 08:05:55;;;;;;;11.48;2.75;;;22.20;80.20;;;;;;5032682;28;20409;-70
2021/08/14 08:08:20;;;;;;;9.05;2.92;;;22.40;81.00;;;;;;5032605;28;20379;-69
2021/08/14 08:10:46;;;;;;;9.73;2.80;;;22.40;81.20;;;;;;5032199;28;20044;-70
2021/08/14 08:13:12;;;;;;;21.15;4.35;;;22.50;81.40;;;;;;5032269;28;20041;-70
2021/08/14 08:15:37;;;;;;;10.35;3.13;;;22.60;81.20;;;;;;5032040;28;20112;-69
2021/08/14 08:18:02;;;;;;;12.10;2.65;;;22.60;80.40;;;;;;5032705;28;20050;-70
2021/08/14 08:20:28;;;;;;;10.93;2.58;;;22.60;80.60;;;;;;5032169;28;20343;-69
2021/08/14 08:22:54;;;;;;;14.85;3.10;;;22.70;80.40;;;;;;5031997;28;20106;-70
2021/08/14 08:25:21;;;;;;;10.30;3.55;;;22.80;80.40;;;;;;5032271;28;20060;-71
2021/08/14 08:27:48;;;;;;;12.90;3.63;;;23.20;80.30;;;;;;5032006;28;20036;-70
2021/08/14 08:30:16;;;;;;;9.60;2.83;;;23.90;79.40;;;;;;5032429;28;20026;-71
2021/08/14 08:32:42;;;;;;;;;;;24.60;77.20;;;;;;5032776;28;20468;-70
2021/08/14 08:35:08;;;;;;;12.93;3.35;;;25.20;74.80;;;;;;5031738;28;20000;-71
2021/08/14 08:37:34;;;;;;;12.80;3.20;;;25.60;74.30;;;;;;5031785;28;20128;-71
2021/08/14 08:40:00;;;;;;;15.10;3.75;;;26.10;72.30;;;;;;5031818;28;20152;-72
2021/08/14 08:42:26;;;;;;;11.07;3.15;;;27.20;71.50;;;;;;5031934;28;20104;-70
2021/08/14 08:44:51;;;;;;;14.30;3.20;;;27.80;68.40;;;;;;5032064;28;20479;-72
2021/08/14 08:47:17;;;;;;;13.35;3.83;;;27.90;66.80;;;;;;5031345;28;20034;-70
2021/08/14 08:50:01;;;;;;;11.45;4.30;;;28.10;65.20;;;;;;5031498;28;20025;-71
2021/08/14 08:52:27;;;;;;;10.77;3.08;;;28.20;65.00;;;;;;5031435;28;20029;-71
2021/08/14 08:54:53;;;;;;;7.75;3.28;;;28.30;65.00;;;;;;5031470;28;20040;-72
2021/08/14 08:57:19;;;;;;;15.68;4.00;;;28.50;64.20;;;;;;5031224;28;20030;-71
2021/08/14 08:59:48;;;;;;;21.67;10.20;;;28.70;64.10;;;;;;5031634;28;20380;-71
2021/08/14 09:02:28;;;;;;;19.13;5.07;;;28.60;61.80;;;;;;5031189;28;20336;-71
2021/08/14 09:05:17;;;;;;;17.63;5.20;;;28.80;61.50;;;;;;5031372;28;20109;-71
2021/08/14 09:07:44;;;;;;;10.90;4.55;;;28.90;60.10;;;;;;5031217;28;20037;-72
2021/08/14 09:10:14;;;;;;;;;;;29.20;59.80;;;;;;5031798;28;20072;-72
2021/08/14 09:12:42;;;;;;;17.15;4.57;;;29.90;59.10;;;;;;5031293;28;19909;-71
2021/08/14 09:15:17;;;;;;;15.77;4.75;;;30.20;58.80;;;;;;5030572;28;20102;-72
2021/08/14 09:17:46;;;;;;;20.42;4.80;;;30.80;56.60;;;;;;5031333;28;20394;-73
2021/08/14 09:20:15;;;;;;;15.30;6.20;;;30.70;55.10;;;;;;5032095;28;20044;-72
2021/08/14 09:23:03;;;;;;;17.20;5.05;;;30.00;55.50;;;;;;5050783;28;20053;-72
2021/08/14 09:25:44;;;;;;;12.75;4.07;;;29.80;56.40;;;;;;5051043;28;20033;-72
2021/08/14 09:28:11;;;;;;;20.58;4.63;;;29.10;56.40;;;;;;5051021;28;20033;-72
2021/08/14 09:30:48;;;;;;;12.27;3.45;;;28.90;58.20;;;;;;5050795;28;20048;-72
2021/08/14 09:33:22;;;;;;;14.63;3.55;;;28.50;58.80;;;;;;5051230;28;20371;-72
2021/08/14 09:36:13;;;;;;;12.18;4.13;;;28.90;58.90;;;;;;5050786;28;20029;-72
2021/08/14 09:38:41;;;;;;;12.77;4.30;;;28.60;58.50;;;;;;5050473;28;20406;-72
2021/08/14 09:41:09;;;;;;;14.50;3.72;;;28.30;59.00;;;;;;5050005;28;20104;-71
2021/08/14 09:43:35;;;;;;;13.65;4.15;;;28.00;59.30;;;;;;5050614;28;20033;-72
2021/08/14 09:46:01;;;;;;;11.75;3.80;;;27.60;60.20;;;;;;5050680;28;20048;-71
2021/08/14 09:48:28;;;;;;;10.00;3.35;;;27.80;60.30;;;;;;5050426;28;20029;-71
2021/08/14 09:50:54;;;;;;;10.40;3.27;;;27.90;58.80;;;;;;5051457;28;20078;-74
2021/08/14 09:53:24;;;;;;;13.40;3.47;;;28.50;58.20;;;;;;5050661;28;20029;-75
2021/08/14 09:56:03;;;;;;;13.35;3.80;;;29.10;56.60;;;;;;5050500;28;20026;-72
2021/08/14 09:58:30;;;;;;;12.00;3.90;;;29.40;55.50;;;;;;5050477;28;20028;-73
2021/08/14 10:00:58;;;;;;;9.30;3.47;;;29.80;55.30;;;;;;5050098;28;20147;-73
2021/08/14 10:03:23;;;;;;;11.90;3.55;;;29.80;54.70;;;;;;5050626;28;20037;-70
2021/08/14 10:05:49;;;;;;;11.32;3.80;;;30.50;53.90;;;;;;5051114;28;20604;-72
2021/08/14 10:08:15;;;;;;;8.88;3.40;;;30.70;52.60;;;;;;5050591;28;20029;-70
2021/08/14 10:10:41;;;;;;;13.60;4.10;;;30.80;53.00;;;;;;5050427;28;20394;-73
2021/08/14 10:13:07;;;;;;;11.43;3.72;;;31.40;52.50;;;;;;5050676;28;20120;-73
2021/08/14 10:15:33;;;;;;;12.07;3.72;;;31.70;51.50;;;;;;5050090;28;20109;-71
2021/08/14 10:17:59;;;;;;;15.50;3.55;;;31.60;51.50;;;;;;5050853;28;20028;-72
2021/08/14 10:20:25;;;;;;;10.05;3.85;;;32.20;50.80;;;;;;5050326;28;20040;-71
2021/08/14 10:23:09;;;;;;;10.45;3.55;;;32.00;49.90;;;;;;5050248;28;20057;-71
2021/08/14 10:25:37;;;;;;;20.90;4.18;;;31.40;50.40;;;;;;5050423;28;20037;-72
2021/08/14 10:28:06;;;;;;;11.85;4.25;;;31.80;51.00;;;;;;5050209;28;20060;-71
2021/08/14 10:30:49;;;;;;;12.55;3.22;;;32.00;50.00;;;;;;5050158;28;20039;-71
2021/08/14 10:33:27;;;;;;;9.50;3.30;;;31.30;48.90;;;;;;5049558;28;20067;-72
2021/08/14 10:35:57;;;;;;;9.57;3.47;;;30.60;49.00;;;;;;5050273;28;20056;-71
2021/08/14 10:38:39;;;;;;;16.20;5.07;;;29.90;49.70;;;;;;5050236;28;20367;-71
2021/08/14 10:41:06;;;;;;;8.63;3.63;;;29.90;50.60;;;;;;5049864;28;20048;-72
2021/08/14 10:43:53;;;;;;;10.88;4.65;;;29.70;50.00;;;;;;5050103;28;20075;-70
2021/08/14 10:46:35;;;;;;;;;;;29.70;50.20;;;;;;5050421;28;20312;-71
2021/08/14 10:49:00;;;;;;;9.43;2.90;;;29.70;50.60;;;;;;5050264;28;20335;-72
2021/08/14 10:51:51;;;;;;;6.68;3.30;;;29.70;49.90;;;;;;5048915;28;20036;-72
2021/08/14 10:54:29;;;;;;;9.70;3.63;;;29.50;50.10;;;;;;5053564;28;20017;-72
2021/08/14 10:56:55;;;;;;;10.30;3.60;;;29.00;49.90;;;;;;5054099;28;20021;-72
2021/08/14 11:02:08;;;;;;;6.72;2.75;;;28.60;49.90;;;;;;5053741;28;20749;-72
2021/08/14 11:04:53;;;;;;;10.82;3.83;;;28.40;49.30;;;;;;5053491;28;20043;-72
2021/08/14 11:07:18;;;;;;;8.52;3.28;;;28.40;49.20;;;;;;5052138;28;20029;-71
2021/08/14 11:09:52;;;;;;;8.30;3.53;;;28.30;49.60;;;;;;5053261;28;20025;-72
2021/08/14 11:12:34;;;;;;;13.73;3.53;;;28.40;49.70;;;;;;5053320;28;20025;-72
2021/08/14 11:15:21;;;;;;;7.50;3.17;;;28.10;49.50;;;;;;5053727;28;20021;-72
2021/08/14 11:17:49;;;;;;;8.50;3.13;;;28.10;50.00;;;;;;5053334;28;20037;-72
2021/08/14 11:20:24;;;;;;;;;;;28.20;50.20;;;;;;5053235;28;20039;-73
2021/08/14 11:22:53;;;;;;;9.60;3.95;;;28.20;50.20;;;;;;5052605;28;20079;-72
2021/08/14 11:25:23;;;;;;;10.52;3.78;;;27.90;50.20;;;;;;5052978;28;20125;-72
2021/08/14 11:27:53;;;;;;;9.30;3.40;;;27.80;50.90;;;;;;5052833;28;20036;-72
2021/08/14 11:30:22;;;;;;;9.40;2.92;;;27.90;51.00;;;;;;5052653;28;20465;-72
2021/08/14 11:32:48;;;;;;;9.18;4.50;;;28.10;50.90;;;;;;5053203;28;20112;-71
2021/08/14 11:35:17;;;;;;;5.68;3.42;;;28.20;50.70;;;;;;5052876;28;20044;-71
2021/08/14 11:37:54;;;;;;;9.80;3.85;;;28.30;50.60;;;;;;5052903;28;20115;-73
2021/08/14 11:40:21;;;;;;;;;;;28.10;50.90;;;;;;5053124;28;20072;-71
2021/08/14 11:43:17;;;;;;;10.07;3.30;;;28.40;50.70;;;;;;5052292;28;19909;-71
2021/08/14 11:45:45;;;;;;;13.00;5.28;;;28.40;50.50;;;;;;5047985;28;20068;-75
2021/08/14 11:48:16;;;;;;;8.32;3.42;;;28.30;50.60;;;;;;5052856;28;20032;-73
2021/08/14 11:50:47;;;;;;;8.02;3.53;;;28.30;50.50;;;;;;5052511;28;20068;-70
2021/08/14 11:53:25;;;;;;;14.30;3.90;;;28.30;50.40;;;;;;5052304;28;20108;-72
2021/08/14 11:56:07;;;;;;;8.73;3.80;;;28.30;50.90;;;;;;5052309;28;20033;-71
2021/08/14 11:58:33;;;;;;;10.90;3.53;;;28.10;50.90;;;;;;5052301;28;20083;-72
2021/08/14 12:00:59;;;;;;;10.45;3.40;;;27.80;51.40;;;;;;5051065;28;20355;-74
2021/08/14 12:03:25;;;;;;;11.82;3.63;;;27.80;51.50;;;;;;5051772;28;20025;-72
2021/08/14 12:05:52;;;;;;;10.90;3.60;;;27.90;51.30;;;;;;5052304;28;20359;-72
2021/08/14 12:08:32;;;;;;;9.60;3.47;;;27.80;51.20;;;;;;5051095;28;20405;-72
2021/08/14 12:11:00;;;;;;;8.18;3.20;;;27.70;51.20;;;;;;5052128;28;20103;-71
2021/08/14 12:13:25;;;;;;;10.80;4.15;;;27.70;51.60;;;;;;5052073;28;20036;-72
2021/08/14 12:15:51;;;;;;;9.00;4.18;;;27.60;51.30;;;;;;5050188;28;20657;-72
2021/08/14 12:18:34;;;;;;;8.65;3.63;;;27.70;51.10;;;;;;5052369;28;20407;-71
2021/08/14 12:21:02;;;;;;;9.07;3.35;;;27.80;51.20;;;;;;5052628;28;20126;-71
2021/08/14 12:23:29;;;;;;;7.10;3.40;;;27.90;51.30;;;;;;5051977;28;20356;-73
2021/08/14 12:26:05;;;;;;;8.10;4.00;;;28.00;51.60;;;;;;5051605;28;20029;-74
2021/08/14 12:28:36;;;;;;;12.48;3.22;;;27.80;50.90;;;;;;5051787;28;20457;-73
2021/08/14 12:31:17;;;;;;;9.52;3.45;;;27.70;51.40;;;;;;5051481;28;20072;-73
2021/08/14 12:33:50;;;;;;;11.15;3.90;;;27.70;50.90;;;;;;5051808;28;20029;-73
2021/08/14 12:36:31;;;;;;;11.18;3.42;;;27.80;51.10;;;;;;5050724;28;20113;-74
2021/08/14 12:38:56;;;;;;;6.70;3.35;;;27.90;51.20;;;;;;5051783;28;20344;-71
2021/08/14 12:41:22;;;;;;;11.10;3.33;;;27.90;51.00;;;;;;5050792;28;20045;-71
2021/08/14 12:43:51;;;;;;;10.82;4.57;;;27.70;50.20;;;;;;5050390;28;20029;-73
2021/08/14 12:46:18;;;;;;;6.18;2.85;;;27.70;50.00;;;;;;5050446;28;20029;-72
2021/08/14 12:49:20;;;;;;;8.60;3.33;;;27.60;50.40;;;;;;5051505;28;20029;-71